首页
METAR-TAF:

METAR-TAF

机场 :

奥朗日, 法国

纬度: 44-08N, 经度: 004-50E, 海拔: 60米

当前天气观测

该预报发布于14分钟前的21:30 UTC
风速2节,风向多变
温度 17°C
湿度 88%
气压 1014 hPa
能見度: 1200
小雨

METAR: LFMO 242130Z AUTO VRB02KT 9999 1200 R14/P2000 -RA NSC 17/15 Q1014 NOSIG

时间: 23:44 (21:44 UTC)

预报

该预报发布于1小时和44分钟前的20:00 UTC
预报有效从24日的 21点(UTC)到 25日的 21点(UTC)
风速8节,风向南转南东
能见度10公里或以上
1500米以下无云,无积雨云
成为
从 25日的 06点(UTC)到 25日的 08点(UTC)
风速10节,风向
短暂存在
从 25日的 10点(UTC)到 25日的 18点(UTC)
风速20节,风向
几率 40% :
短暂存在
从 25日的 16点(UTC)到 25日的 20点(UTC)
能見度: 4000
多云层高于6500英尺, 塔状积云.
阵雨
几率 30% :
短暂存在
从 25日的 17点(UTC)到 25日的 19点(UTC)
多云层高于5500英尺, 积雨云.
雷暴, 雨

TAF: LFMO 242000Z 2421/2521 15008KT CAVOK BECMG 2506/2508 36010KT TEMPO 2510/2518 36020KT PROB40 TEMPO 2516/2520 4000 SHRA BKN065TCU PROB30 TEMPO 2517/2519 TSRA BKN055CB

超过4000个机场的气象观测和天气预报(METAR&TAF报告)。

可查询的气象台以黄色和红色小点在地图上表示。

将鼠标移到小点上方,可查看气象台名称。

然后点击查看天气观测和预报。

如需切换地图:点击带黑十字的绿色按钮放大地图;点击带横线的绿色按钮缩小地图;或者点击绿色箭头查看邻近地区的地图。


METAR-TAF: